Time;durP1;ratioP1;P1;durP2;ratioP2;P2;SDS_P1;SDS_P2;PMS_P1;PMS_P2;Temp;Humidity;BMP_temperature;BMP_pressure;BME280_temperature;BME280_humidity;BME280_pressure;Samples;Min_cycle;Max_cycle;Signal;HPM_P1;HPM_P2
2023/12/09 00:01:07;;;;;;;3.47;1.00;;;11.50;71.10;;;;;;5011387;28;20036;-69
2023/12/09 00:03:33;;;;;;;0.82;0.82;;;11.60;71.20;;;;;;5011962;28;20462;-69
2023/12/09 00:05:58;;;;;;;0.60;0.60;;;11.50;71.20;;;;;;5011298;28;20018;-69
2023/12/09 00:08:24;;;;;;;0.55;0.55;;;11.50;71.20;;;;;;4993653;28;20033;-69
2023/12/09 00:10:49;;;;;;;0.70;0.70;;;11.50;71.20;;;;;;5001205;28;20031;-69
2023/12/09 00:13:16;;;;;;;0.70;0.70;;;11.50;71.30;;;;;;4991546;28;20095;-69
2023/12/09 00:15:41;;;;;;;0.50;0.50;;;11.50;71.20;;;;;;4991586;28;20018;-69
2023/12/09 00:18:07;;;;;;;0.65;0.65;;;11.50;71.10;;;;;;4992074;28;20375;-69
2023/12/09 00:20:33;;;;;;;0.40;0.40;;;11.50;71.30;;;;;;4991664;28;20065;-68
2023/12/09 00:22:58;;;;;;;0.60;0.60;;;11.50;71.20;;;;;;4992184;28;20041;-69
2023/12/09 00:25:24;;;;;;;0.50;0.50;;;11.50;71.20;;;;;;4991662;28;20030;-69
2023/12/09 00:27:49;;;;;;;0.75;0.75;;;11.50;71.20;;;;;;4992451;28;20132;-68
2023/12/09 00:30:15;;;;;;;0.52;0.52;;;11.50;71.10;;;;;;4991668;28;20153;-69
2023/12/09 00:32:40;;;;;;;0.65;0.65;;;11.50;71.10;;;;;;4992018;28;20036;-69
2023/12/09 00:35:07;;;;;;;1.58;0.70;;;11.50;71.10;;;;;;4974134;28;20037;-69
2023/12/09 00:37:32;;;;;;;0.60;0.60;;;11.50;71.20;;;;;;4991694;28;20034;-69
2023/12/09 00:39:58;;;;;;;0.50;0.50;;;11.50;71.10;;;;;;4991369;28;20502;-69
2023/12/09 00:42:24;;;;;;;0.68;0.68;;;11.50;71.10;;;;;;4991827;28;20122;-69
2023/12/09 00:44:49;;;;;;;1.60;1.50;;;11.50;71.00;;;;;;4991449;28;20022;-69
2023/12/09 00:47:15;;;;;;;0.50;0.50;;;11.50;70.90;;;;;;4992000;28;20125;-69
2023/12/09 00:49:40;;;;;;;1.65;1.02;;;11.50;70.80;;;;;;4991354;28;20478;-69
2023/12/09 00:52:06;;;;;;;0.50;0.50;;;11.40;70.60;;;;;;4991552;28;20038;-69
2023/12/09 00:54:31;;;;;;;0.68;0.68;;;11.40;70.50;;;;;;4991426;28;20027;-69
2023/12/09 00:56:57;;;;;;;0.50;0.50;;;11.40;70.50;;;;;;4974120;28;20027;-69
2023/12/09 00:59:22;;;;;;;0.63;0.63;;;11.40;70.60;;;;;;4973892;28;20038;-69
2023/12/09 01:01:48;;;;;;;0.50;0.50;;;11.40;70.80;;;;;;4991642;28;20489;-69
2023/12/09 01:04:13;;;;;;;0.50;0.50;;;11.40;71.00;;;;;;4991270;28;20482;-69
2023/12/09 01:06:39;;;;;;;0.95;0.95;;;11.40;71.10;;;;;;4991344;28;20042;-69
2023/12/09 01:09:04;;;;;;;0.65;0.65;;;11.40;71.00;;;;;;4991276;28;20026;-69
2023/12/09 01:11:30;;;;;;;0.50;0.50;;;11.40;71.10;;;;;;4994016;28;20035;-69
2023/12/09 01:13:55;;;;;;;0.50;0.50;;;11.50;71.10;;;;;;4977245;28;20031;-69
2023/12/09 01:16:21;;;;;;;0.52;0.52;;;11.50;71.30;;;;;;4977551;28;20030;-68
2023/12/09 01:18:46;;;;;;;1.10;1.02;;;11.50;71.40;;;;;;4994675;28;20022;-68
2023/12/09 01:21:12;;;;;;;3.40;0.93;;;11.50;71.40;;;;;;4977204;28;20035;-69
2023/12/09 01:23:39;;;;;;;0.45;0.45;;;11.50;71.30;;;;;;4977257;28;20046;-69
2023/12/09 01:26:05;;;;;;;0.85;0.85;;;11.60;71.30;;;;;;4977098;28;20482;-69
2023/12/09 01:28:31;;;;;;;1.20;1.15;;;11.60;71.30;;;;;;4994625;28;20019;-69
2023/12/09 01:30:56;;;;;;;0.82;0.82;;;11.60;71.30;;;;;;4994538;28;20470;-70
2023/12/09 01:33:22;;;;;;;0.60;0.60;;;11.60;71.30;;;;;;4994696;28;20030;-68
2023/12/09 01:35:47;;;;;;;0.50;0.50;;;11.60;71.40;;;;;;4994186;28;20035;-68
2023/12/09 01:38:13;;;;;;;0.50;0.50;;;11.70;71.40;;;;;;4995678;28;20554;-71
2023/12/09 01:40:38;;;;;;;0.52;0.52;;;11.60;71.30;;;;;;4997044;28;20050;-70
2023/12/09 01:43:10;;;;;;;0.63;0.63;;;11.60;71.30;;;;;;4996428;28;20478;-70
2023/12/09 01:45:36;;;;;;;0.70;0.70;;;11.60;71.20;;;;;;4996216;28;20042;-70
2023/12/09 01:48:03;;;;;;;0.65;0.65;;;11.60;71.10;;;;;;4996589;28;20056;-71
2023/12/09 01:50:30;;;;;;;0.40;0.40;;;11.60;71.20;;;;;;4996660;28;20030;-70
2023/12/09 01:52:56;;;;;;;0.50;0.50;;;11.60;71.20;;;;;;4997095;28;20041;-70
2023/12/09 01:55:23;;;;;;;0.70;0.70;;;11.60;71.20;;;;;;4996538;28;20030;-70
2023/12/09 01:57:49;;;;;;;0.50;0.50;;;11.60;71.10;;;;;;4996395;28;20030;-70
2023/12/09 02:00:15;;;;;;;0.50;0.50;;;11.60;71.10;;;;;;4995895;28;20030;-70
2023/12/09 02:02:40;;;;;;;0.50;0.50;;;11.60;71.00;;;;;;4996483;28;20367;-71
2023/12/09 02:05:06;;;;;;;0.52;0.52;;;11.60;70.80;;;;;;4995967;28;20405;-71
2023/12/09 02:07:33;;;;;;;0.57;0.57;;;11.50;70.70;;;;;;4997054;28;20434;-71
2023/12/09 02:09:59;;;;;;;1.13;1.08;;;11.50;70.60;;;;;;4996466;28;20050;-71
2023/12/09 02:12:39;;;;;;;2.80;0.82;;;11.40;70.70;;;;;;4996256;28;20083;-71
2023/12/09 02:15:18;;;;;;;0.65;0.65;;;11.40;70.90;;;;;;4997075;28;20509;-71
2023/12/09 02:17:51;;;;;;;0.55;0.55;;;11.40;70.80;;;;;;4997878;28;20454;-71
2023/12/09 02:20:17;;;;;;;0.55;0.55;;;11.40;70.70;;;;;;4997978;28;20536;-71
2023/12/09 02:22:43;;;;;;;0.80;0.80;;;11.30;70.50;;;;;;4997461;28;20070;-71
2023/12/09 02:25:08;;;;;;;0.50;0.50;;;11.30;70.50;;;;;;4997063;28;20034;-71
2023/12/09 02:27:45;;;;;;;0.50;0.50;;;11.20;70.40;;;;;;4998172;28;20121;-71
2023/12/09 02:30:28;;;;;;;0.50;0.50;;;11.20;70.50;;;;;;4997257;28;20033;-71
2023/12/09 02:32:56;;;;;;;0.85;0.82;;;11.20;70.60;;;;;;4998132;28;20045;-71
2023/12/09 02:35:24;;;;;;;0.50;0.50;;;11.20;70.80;;;;;;4997656;28;20474;-71
2023/12/09 02:37:51;;;;;;;0.40;0.40;;;11.20;70.90;;;;;;4997049;28;20027;-71
2023/12/09 02:40:17;;;;;;;0.90;0.90;;;11.20;71.00;;;;;;4980287;28;20023;-71
2023/12/09 02:42:44;;;;;;;0.68;0.68;;;11.20;70.90;;;;;;4998734;28;20537;-71
2023/12/09 02:45:11;;;;;;;0.45;0.45;;;11.20;70.90;;;;;;4998179;28;20061;-71
2023/12/09 02:47:36;;;;;;;0.65;0.65;;;11.20;70.90;;;;;;4997500;28;20032;-71
2023/12/09 02:50:02;;;;;;;0.70;0.70;;;11.30;70.90;;;;;;4997443;28;20444;-71
2023/12/09 02:52:28;;;;;;;0.30;0.30;;;11.30;71.00;;;;;;4997959;28;20394;-71
2023/12/09 02:54:53;;;;;;;0.50;0.50;;;11.30;71.10;;;;;;4998418;28;20018;-71
2023/12/09 02:57:19;;;;;;;0.93;0.93;;;11.30;71.00;;;;;;4999291;28;20053;-71
2023/12/09 02:59:44;;;;;;;0.50;0.50;;;11.30;70.80;;;;;;4998715;28;20070;-71
2023/12/09 03:02:10;;;;;;;1.25;1.17;;;11.30;70.80;;;;;;4997826;28;20045;-71
2023/12/09 03:04:35;;;;;;;0.80;0.80;;;11.30;70.90;;;;;;4997815;28;20041;-71
2023/12/09 03:07:01;;;;;;;0.50;0.50;;;11.30;70.90;;;;;;4997501;28;20042;-71
2023/12/09 03:09:26;;;;;;;0.50;0.50;;;11.30;70.80;;;;;;4996634;28;20034;-71
2023/12/09 03:11:52;;;;;;;0.40;0.40;;;11.30;70.80;;;;;;4996913;28;20057;-71
2023/12/09 03:14:17;;;;;;;0.60;0.60;;;11.30;70.90;;;;;;4996558;28;20045;-72
2023/12/09 03:16:43;;;;;;;0.70;0.70;;;11.30;70.90;;;;;;4995684;28;20062;-71
2023/12/09 03:19:08;;;;;;;0.50;0.50;;;11.30;70.90;;;;;;4996508;28;20082;-71
2023/12/09 03:21:34;;;;;;;0.77;0.77;;;11.30;71.00;;;;;;4977939;28;20122;-71
2023/12/09 03:23:59;;;;;;;0.40;0.40;;;11.30;71.00;;;;;;4996047;28;20030;-71
2023/12/09 03:26:26;;;;;;;0.68;0.68;;;11.30;71.00;;;;;;4996327;28;20041;-71
2023/12/09 03:28:54;;;;;;;0.40;0.40;;;11.30;70.90;;;;;;4996931;28;20105;-72
2023/12/09 03:31:20;;;;;;;0.60;0.60;;;11.30;70.90;;;;;;4996996;28;20035;-71
2023/12/09 03:33:45;;;;;;;0.50;0.50;;;11.30;70.80;;;;;;4995614;28;20034;-71
2023/12/09 03:36:13;;;;;;;0.68;0.68;;;11.30;70.90;;;;;;4978684;28;20073;-71
2023/12/09 03:38:39;;;;;;;0.45;0.45;;;11.30;70.80;;;;;;4996388;28;20053;-71
2023/12/09 03:41:05;;;;;;;0.73;0.73;;;11.30;70.90;;;;;;4996829;28;20497;-71
2023/12/09 03:43:31;;;;;;;0.95;0.95;;;11.40;70.90;;;;;;4997150;28;20397;-71
2023/12/09 03:45:58;;;;;;;3.15;1.17;;;11.30;70.90;;;;;;4996960;28;20019;-71
2023/12/09 03:48:24;;;;;;;0.93;0.93;;;11.30;70.80;;;;;;4996822;28;20105;-71
2023/12/09 03:50:49;;;;;;;0.50;0.50;;;11.40;70.80;;;;;;4997172;28;20057;-71
2023/12/09 03:53:15;;;;;;;0.50;0.50;;;11.30;70.70;;;;;;4997626;28;20065;-71
2023/12/09 03:55:40;;;;;;;0.98;0.98;;;11.40;70.70;;;;;;4996509;28;20097;-71
2023/12/09 03:58:06;;;;;;;0.50;0.50;;;11.30;70.60;;;;;;4996245;28;20039;-71
2023/12/09 04:00:32;;;;;;;0.45;0.45;;;11.30;70.50;;;;;;4997441;28;20026;-71
2023/12/09 04:02:57;;;;;;;0.50;0.50;;;11.30;70.70;;;;;;4996717;28;20127;-71
2023/12/09 04:05:23;;;;;;;0.40;0.40;;;11.30;70.80;;;;;;4996430;28;20031;-71
2023/12/09 04:07:48;;;;;;;4.18;1.17;;;11.30;71.00;;;;;;4996719;28;20034;-71
2023/12/09 04:10:14;;;;;;;0.50;0.50;;;11.40;70.80;;;;;;4996208;28;20042;-71
2023/12/09 04:12:40;;;;;;;1.50;1.40;;;11.40;70.90;;;;;;4996370;28;20428;-71
2023/12/09 04:15:07;;;;;;;0.50;0.50;;;11.40;70.90;;;;;;4995492;28;20038;-71
2023/12/09 04:17:32;;;;;;;0.60;0.60;;;11.30;70.70;;;;;;4995544;28;20041;-71
2023/12/09 04:19:58;;;;;;;0.40;0.40;;;11.30;70.50;;;;;;4995653;28;20018;-71
2023/12/09 04:22:23;;;;;;;0.50;0.50;;;11.30;70.40;;;;;;4995312;28;20046;-71
2023/12/09 04:24:49;;;;;;;0.50;0.50;;;11.20;70.40;;;;;;4995551;28;20033;-71
2023/12/09 04:27:15;;;;;;;0.47;0.47;;;11.20;70.40;;;;;;4995645;28;20557;-71
2023/12/09 04:29:40;;;;;;;0.70;0.70;;;11.20;70.60;;;;;;4995522;28;20034;-71
2023/12/09 04:32:06;;;;;;;0.60;0.60;;;11.20;70.60;;;;;;4995893;28;20048;-71
2023/12/09 04:34:31;;;;;;;0.40;0.40;;;11.20;70.40;;;;;;4995328;28;20027;-71
2023/12/09 04:36:57;;;;;;;0.60;0.60;;;11.10;70.20;;;;;;4995848;28;20062;-72
2023/12/09 04:39:22;;;;;;;0.40;0.40;;;11.10;70.20;;;;;;4995109;28;20026;-71
2023/12/09 04:41:48;;;;;;;0.40;0.40;;;11.00;70.30;;;;;;4995359;28;20470;-71
2023/12/09 04:44:13;;;;;;;0.40;0.40;;;11.00;70.30;;;;;;4995306;28;20034;-71
2023/12/09 04:46:39;;;;;;;0.40;0.40;;;11.00;70.20;;;;;;4998669;28;20034;-71
2023/12/09 04:49:04;;;;;;;0.40;0.40;;;11.00;69.90;;;;;;4999643;28;20038;-71
2023/12/09 04:51:30;;;;;;;0.95;0.90;;;10.80;69.60;;;;;;4999254;28;20042;-71
2023/12/09 04:53:55;;;;;;;0.40;0.40;;;10.70;69.60;;;;;;4999352;28;20041;-71
2023/12/09 04:56:21;;;;;;;0.50;0.50;;;10.70;69.70;;;;;;4999331;28;20034;-71
2023/12/09 04:58:47;;;;;;;0.60;0.60;;;10.70;69.70;;;;;;4998823;28;20042;-71
2023/12/09 05:01:12;;;;;;;0.40;0.40;;;10.60;69.50;;;;;;4999257;28;20378;-71
2023/12/09 05:03:38;;;;;;;1.45;1.27;;;10.50;69.50;;;;;;4999360;28;20505;-71
2023/12/09 05:06:04;;;;;;;0.50;0.50;;;10.50;69.40;;;;;;4999244;28;20038;-71
2023/12/09 05:08:30;;;;;;;0.65;0.65;;;10.40;69.50;;;;;;4998411;28;20053;-71
2023/12/09 05:10:55;;;;;;;1.30;1.02;;;10.40;69.60;;;;;;4998168;28;20069;-71
2023/12/09 05:13:21;;;;;;;0.47;0.47;;;10.30;69.80;;;;;;4998336;28;20030;-71
2023/12/09 05:15:46;;;;;;;1.05;1.05;;;10.30;69.80;;;;;;4997915;28;20026;-71
2023/12/09 05:18:12;;;;;;;0.50;0.50;;;10.30;69.70;;;;;;4998399;28;20030;-71
2023/12/09 05:20:38;;;;;;;0.40;0.40;;;10.20;69.70;;;;;;4998015;28;20030;-71
2023/12/09 05:23:03;;;;;;;0.50;0.50;;;10.20;69.90;;;;;;4998004;28;20038;-71
2023/12/09 05:25:29;;;;;;;0.40;0.40;;;10.20;69.90;;;;;;4998182;28;20076;-71
2023/12/09 05:27:55;;;;;;;0.40;0.40;;;10.20;70.00;;;;;;4998633;28;20046;-71
2023/12/09 05:30:20;;;;;;;0.47;0.47;;;10.20;70.10;;;;;;4998141;28;20498;-71
2023/12/09 05:32:46;;;;;;;0.50;0.50;;;10.20;70.30;;;;;;4998215;28;20398;-72
2023/12/09 05:35:11;;;;;;;0.50;0.50;;;10.20;70.20;;;;;;4997604;28;20495;-71
2023/12/09 05:37:37;;;;;;;0.50;0.50;;;10.20;70.30;;;;;;4997787;28;20039;-71
2023/12/09 05:40:03;;;;;;;0.85;0.82;;;10.30;70.30;;;;;;4979854;28;20034;-72
2023/12/09 05:42:29;;;;;;;0.73;0.73;;;10.30;70.60;;;;;;4980115;28;20058;-71
2023/12/09 05:44:54;;;;;;;0.40;0.40;;;10.40;71.00;;;;;;4997914;28;20049;-72
2023/12/09 05:47:20;;;;;;;0.40;0.40;;;10.40;71.20;;;;;;4997706;28;20030;-71
2023/12/09 05:49:45;;;;;;;0.35;0.35;;;10.50;71.00;;;;;;4997770;28;20058;-71
2023/12/09 05:52:11;;;;;;;0.80;0.80;;;10.50;70.80;;;;;;4996902;28;20045;-71
2023/12/09 05:54:37;;;;;;;0.55;0.55;;;10.50;70.50;;;;;;4997357;28;20031;-71
2023/12/09 05:57:02;;;;;;;0.80;0.60;;;10.40;70.40;;;;;;4996306;28;20030;-71
2023/12/09 05:59:28;;;;;;;0.50;0.50;;;10.40;70.20;;;;;;4997462;28;20394;-71
2023/12/09 06:01:54;;;;;;;0.68;0.68;;;10.40;70.30;;;;;;4997201;28;20049;-71
2023/12/09 06:04:20;;;;;;;0.47;0.47;;;10.40;70.40;;;;;;4997337;28;20485;-71
2023/12/09 06:06:45;;;;;;;0.45;0.45;;;10.40;70.80;;;;;;4997236;28;20038;-71
2023/12/09 06:09:11;;;;;;;0.60;0.60;;;10.50;71.00;;;;;;4997202;28;20553;-72
2023/12/09 06:11:37;;;;;;;0.40;0.40;;;10.50;71.10;;;;;;4996563;28;20114;-71
2023/12/09 06:14:03;;;;;;;0.40;0.40;;;10.60;71.20;;;;;;4996343;28;20486;-71
2023/12/09 06:16:28;;;;;;;0.50;0.50;;;10.70;71.20;;;;;;4995848;28;20039;-71
2023/12/09 06:18:54;;;;;;;0.50;0.50;;;10.70;71.20;;;;;;4994449;28;20428;-71
2023/12/09 06:21:25;;;;;;;0.40;0.40;;;10.80;71.30;;;;;;4993923;28;20096;-69
2023/12/09 06:23:51;;;;;;;0.40;0.40;;;10.80;71.30;;;;;;4994008;28;20061;-68
2023/12/09 06:26:18;;;;;;;0.50;0.50;;;10.80;71.30;;;;;;4993511;28;20033;-69
2023/12/09 06:28:43;;;;;;;0.50;0.50;;;10.90;71.30;;;;;;4993537;28;20030;-69
2023/12/09 06:31:12;;;;;;;33.63;1.33;;;10.90;71.20;;;;;;4993387;28;20038;-70
2023/12/09 06:33:38;;;;;;;0.55;0.55;;;10.90;71.00;;;;;;4993418;28;20539;-69
2023/12/09 06:36:04;;;;;;;0.40;0.40;;;11.00;71.00;;;;;;4993124;28;20034;-69
2023/12/09 06:38:30;;;;;;;0.50;0.50;;;11.00;71.00;;;;;;4992946;28;20053;-69
2023/12/09 06:40:55;;;;;;;0.40;0.40;;;11.00;71.00;;;;;;4993371;28;20046;-69
2023/12/09 06:43:21;;;;;;;0.85;0.85;;;11.00;71.00;;;;;;4993213;28;20022;-68
2023/12/09 06:45:47;;;;;;;0.40;0.40;;;11.00;70.90;;;;;;4993041;28;20109;-69
2023/12/09 06:48:12;;;;;;;0.50;0.50;;;11.00;70.50;;;;;;4993076;28;20030;-69
2023/12/09 06:50:38;;;;;;;0.50;0.50;;;10.90;70.30;;;;;;4992928;28;20099;-69
2023/12/09 06:53:04;;;;;;;0.40;0.40;;;10.80;69.70;;;;;;4992744;28;20501;-69
2023/12/09 06:55:30;;;;;;;0.70;0.70;;;10.70;69.50;;;;;;4993028;28;20116;-69
2023/12/09 06:57:55;;;;;;;8.50;1.27;;;10.60;69.30;;;;;;4993182;28;20041;-70
2023/12/09 07:00:21;;;;;;;0.93;0.93;;;10.50;69.00;;;;;;4992956;28;20097;-69
2023/12/09 07:02:46;;;;;;;0.95;0.95;;;10.30;68.90;;;;;;4992721;28;20041;-69
2023/12/09 07:05:13;;;;;;;0.40;0.40;;;10.20;68.90;;;;;;4992799;28;20031;-69
2023/12/09 07:07:39;;;;;;;0.50;0.50;;;10.20;69.00;;;;;;4992526;28;20034;-70
2023/12/09 07:10:05;;;;;;;0.70;0.70;;;10.10;69.10;;;;;;4992881;28;20034;-69
2023/12/09 07:12:31;;;;;;;1.00;1.00;;;10.00;69.20;;;;;;4992745;28;20030;-69
2023/12/09 07:14:59;;;;;;;0.55;0.55;;;10.00;69.20;;;;;;4992694;28;20393;-70
2023/12/09 07:17:25;;;;;;;0.40;0.40;;;9.90;69.20;;;;;;4992464;28;20482;-70
2023/12/09 07:19:52;;;;;;;0.50;0.50;;;9.90;69.20;;;;;;4992693;28;20052;-70
2023/12/09 07:22:18;;;;;;;0.40;0.40;;;9.80;69.30;;;;;;4992474;28;20042;-69
2023/12/09 07:24:43;;;;;;;0.50;0.50;;;9.80;69.40;;;;;;4992373;28;20565;-70
2023/12/09 07:27:09;;;;;;;0.50;0.50;;;9.80;69.50;;;;;;4992594;28;20045;-71
2023/12/09 07:29:35;;;;;;;0.50;0.50;;;9.80;69.50;;;;;;4977438;28;20062;-71
2023/12/09 07:32:00;;;;;;;0.50;0.50;;;9.80;69.70;;;;;;4993931;28;20042;-72
2023/12/09 07:34:26;;;;;;;1.27;1.17;;;9.70;69.90;;;;;;4993886;28;20085;-71
2023/12/09 07:36:52;;;;;;;0.63;0.60;;;9.80;70.10;;;;;;4994093;28;20061;-71
2023/12/09 07:39:17;;;;;;;0.95;0.88;;;9.80;70.10;;;;;;4993369;28;20034;-70
2023/12/09 07:41:43;;;;;;;0.40;0.40;;;9.80;70.20;;;;;;4992794;28;20062;-71
2023/12/09 07:44:09;;;;;;;0.45;0.45;;;9.80;70.20;;;;;;4994194;28;20031;-71
2023/12/09 07:46:36;;;;;;;0.40;0.40;;;9.90;70.30;;;;;;4992972;28;20485;-69
2023/12/09 07:49:01;;;;;;;0.47;0.47;;;10.00;70.40;;;;;;4992427;28;20034;-69
2023/12/09 07:51:27;;;;;;;0.75;0.75;;;10.00;70.60;;;;;;4974657;28;20089;-69
2023/12/09 07:53:53;;;;;;;0.40;0.40;;;10.10;70.60;;;;;;4992042;28;20036;-69
2023/12/09 07:56:18;;;;;;;0.90;0.90;;;10.20;70.70;;;;;;4992433;28;20030;-71
2023/12/09 07:58:45;;;;;;;0.40;0.40;;;10.30;70.90;;;;;;4992991;28;20030;-70
2023/12/09 08:01:11;;;;;;;0.52;0.52;;;10.40;70.90;;;;;;4992021;28;20105;-70
2023/12/09 08:03:36;;;;;;;0.60;0.60;;;10.60;71.00;;;;;;4992025;28;20054;-69
2023/12/09 08:06:02;;;;;;;0.50;0.50;;;10.70;70.90;;;;;;4991733;28;20564;-70
2023/12/09 08:08:28;;;;;;;0.43;0.43;;;10.90;70.70;;;;;;4993200;28;20394;-70
2023/12/09 08:10:54;;;;;;;0.50;0.50;;;11.00;70.70;;;;;;4991840;28;20027;-69
2023/12/09 08:13:19;;;;;;;5.97;0.77;;;11.00;70.30;;;;;;4993353;28;20422;-71
2023/12/09 08:15:45;;;;;;;0.80;0.80;;;11.00;69.70;;;;;;4993070;28;20030;-71
2023/12/09 08:18:10;;;;;;;0.50;0.50;;;11.00;69.70;;;;;;4977140;28;20474;-70
2023/12/09 08:20:36;;;;;;;0.40;0.40;;;11.00;70.10;;;;;;4995544;28;20068;-69
2023/12/09 08:23:03;;;;;;;0.57;0.57;;;11.20;70.40;;;;;;4998572;28;20026;-69
2023/12/09 08:25:29;;;;;;;0.50;0.50;;;11.30;70.60;;;;;;4998287;28;20038;-69
2023/12/09 08:27:54;;;;;;;0.40;0.40;;;11.40;70.70;;;;;;4999016;28;20398;-70
2023/12/09 08:30:20;;;;;;;0.57;0.57;;;11.70;70.60;;;;;;4998533;28;20609;-69
2023/12/09 08:32:45;;;;;;;0.50;0.50;;;11.80;70.70;;;;;;4998345;28;20042;-69
2023/12/09 08:35:11;;;;;;;3.50;1.67;;;12.00;70.50;;;;;;4998131;28;20108;-68
2023/12/09 08:37:38;;;;;;;0.52;0.52;;;12.10;70.50;;;;;;4998480;28;20120;-69
2023/12/09 08:40:09;;;;;;;1.40;1.30;;;12.30;70.60;;;;;;4998109;28;20029;-69
2023/12/09 08:42:36;;;;;;;0.60;0.60;;;12.50;70.60;;;;;;4998413;28;20034;-69
2023/12/09 08:45:02;;;;;;;0.50;0.50;;;12.60;70.70;;;;;;4998164;28;20022;-69
2023/12/09 08:47:27;;;;;;;0.50;0.50;;;12.80;70.40;;;;;;4994584;28;20508;-71
2023/12/09 08:49:53;;;;;;;0.40;0.40;;;13.00;70.40;;;;;;5009471;28;20066;-69
2023/12/09 08:52:19;;;;;;;0.60;0.60;;;13.10;70.40;;;;;;4994541;28;20045;-69
2023/12/09 08:54:44;;;;;;;0.40;0.40;;;13.30;70.50;;;;;;5012734;28;20319;-69
2023/12/09 08:57:10;;;;;;;0.50;0.50;;;13.50;70.10;;;;;;4991392;28;20052;-69
2023/12/09 08:59:36;;;;;;;1.17;0.93;;;13.60;70.00;;;;;;5007759;28;20038;-68
2023/12/09 09:02:01;;;;;;;0.50;0.50;;;13.80;70.30;;;;;;4997396;28;20042;-69
2023/12/09 09:04:27;;;;;;;0.40;0.40;;;13.90;70.10;;;;;;5013908;28;20042;-69
2023/12/09 09:06:52;;;;;;;0.40;0.40;;;14.10;70.20;;;;;;4992363;28;20425;-68
2023/12/09 09:09:18;;;;;;;0.50;0.50;;;14.10;69.00;;;;;;5010227;28;20037;-68
2023/12/09 09:11:43;;;;;;;0.40;0.40;;;14.00;67.70;;;;;;4997221;28;20084;-70
2023/12/09 09:14:09;;;;;;;0.82;0.82;;;13.70;67.10;;;;;;5010136;28;20034;-69
2023/12/09 09:16:35;;;;;;;0.50;0.50;;;13.50;67.10;;;;;;5000291;28;20038;-69
2023/12/09 09:19:00;;;;;;;0.47;0.47;;;13.30;67.10;;;;;;5012729;28;20552;-69
2023/12/09 09:21:26;;;;;;;0.50;0.50;;;13.00;67.50;;;;;;4992662;28;20478;-69
2023/12/09 09:23:52;;;;;;;0.75;0.75;;;12.90;67.60;;;;;;4986766;28;20478;-69
2023/12/09 09:26:17;;;;;;;0.45;0.45;;;12.70;67.80;;;;;;4996878;28;20042;-69
2023/12/09 09:28:43;;;;;;;0.77;0.77;;;12.70;67.90;;;;;;4998797;28;20037;-69
2023/12/09 09:31:11;;;;;;;0.40;0.40;;;12.60;68.40;;;;;;4981939;28;20122;-69
2023/12/09 09:33:37;;;;;;;0.45;0.45;;;12.50;68.70;;;;;;5007167;28;20544;-69
2023/12/09 09:36:03;;;;;;;0.60;0.60;;;12.50;69.10;;;;;;5002559;28;20161;-68
2023/12/09 09:38:29;;;;;;;0.70;0.70;;;12.50;69.50;;;;;;5003929;28;20063;-69
2023/12/09 09:40:56;;;;;;;0.50;0.50;;;12.60;69.50;;;;;;5003451;28;20023;-69
2023/12/09 09:43:24;;;;;;;0.50;0.50;;;12.60;70.00;;;;;;5003257;28;20026;-68
2023/12/09 09:45:54;;;;;;;1.15;1.13;;;12.70;69.60;;;;;;5001891;28;20053;-69
2023/12/09 09:48:24;;;;;;;1.60;1.50;;;12.60;69.60;;;;;;4999390;28;20030;-69
2023/12/09 09:50:52;;;;;;;0.40;0.40;;;12.70;69.60;;;;;;5003424;28;20031;-69
2023/12/09 09:53:37;;;;;;;0.47;0.47;;;12.70;69.40;;;;;;4985785;28;20077;-69
2023/12/09 09:56:05;;;;;;;0.50;0.50;;;12.70;69.80;;;;;;4989048;28;20050;-69
2023/12/09 09:58:32;;;;;;;0.50;0.50;;;12.80;69.40;;;;;;4983101;28;20507;-69
2023/12/09 10:00:59;;;;;;;0.82;0.82;;;12.90;70.50;;;;;;4991246;28;20026;-70
2023/12/09 10:03:24;;;;;;;0.50;0.50;;;13.30;71.50;;;;;;4994190;28;20037;-69
2023/12/09 10:05:51;;;;;;;0.60;0.60;;;13.60;71.60;;;;;;4998972;28;20034;-69
2023/12/09 10:08:16;;;;;;;0.50;0.50;;;13.90;71.00;;;;;;4998127;28;20498;-69
2023/12/09 10:10:42;;;;;;;0.50;0.50;;;14.10;70.90;;;;;;4994706;28;20033;-70
2023/12/09 10:13:08;;;;;;;0.40;0.40;;;14.40;70.90;;;;;;4994595;28;20402;-69
2023/12/09 10:15:34;;;;;;;0.50;0.50;;;14.70;70.70;;;;;;5004056;28;20046;-69
2023/12/09 10:18:03;;;;;;;0.50;0.50;;;14.90;70.40;;;;;;5003309;28;20097;-69
2023/12/09 10:20:30;;;;;;;0.65;0.65;;;15.10;69.60;;;;;;5000828;28;20022;-69
2023/12/09 10:22:58;;;;;;;0.40;0.40;;;15.20;69.50;;;;;;5002440;28;20141;-69
2023/12/09 10:25:23;;;;;;;0.52;0.52;;;15.30;68.70;;;;;;5004590;28;20541;-69
2023/12/09 10:27:49;;;;;;;0.40;0.40;;;15.30;68.20;;;;;;5001383;28;20122;-69
2023/12/09 10:30:18;;;;;;;0.40;0.40;;;15.40;67.60;;;;;;5006311;28;20437;-69
2023/12/09 10:32:45;;;;;;;0.40;0.40;;;15.40;67.30;;;;;;5003843;28;20034;-70
2023/12/09 10:35:10;;;;;;;0.32;0.32;;;15.30;67.40;;;;;;5002745;28;20033;-69
2023/12/09 10:37:36;;;;;;;0.57;0.57;;;15.30;66.70;;;;;;5001211;28;20386;-70
2023/12/09 10:40:06;;;;;;;0.50;0.50;;;15.20;65.90;;;;;;5002661;28;20040;-69
2023/12/09 10:42:32;;;;;;;0.88;0.85;;;15.00;66.40;;;;;;5005085;28;20053;-68
2023/12/09 10:44:57;;;;;;;1.00;0.93;;;15.00;67.00;;;;;;4997759;28;20050;-68
2023/12/09 10:47:25;;;;;;;0.50;0.50;;;14.90;67.10;;;;;;5000955;28;20366;-68
2023/12/09 10:49:51;;;;;;;0.55;0.55;;;14.80;67.30;;;;;;4990276;28;20052;-68
2023/12/09 10:52:17;;;;;;;0.40;0.40;;;14.80;68.00;;;;;;4997207;28;20465;-68
2023/12/09 10:54:42;;;;;;;0.45;0.45;;;14.80;68.20;;;;;;4987034;28;20037;-68
2023/12/09 10:57:08;;;;;;;0.50;0.50;;;14.90;68.10;;;;;;5000274;28;20036;-69
2023/12/09 10:59:34;;;;;;;1.80;1.70;;;15.00;68.00;;;;;;4999339;28;20029;-69
2023/12/09 11:02:01;;;;;;;0.50;0.50;;;14.90;68.00;;;;;;4998408;28;20065;-68
2023/12/09 11:04:26;;;;;;;0.70;0.70;;;15.00;67.80;;;;;;5005690;28;20030;-68
2023/12/09 11:06:54;;;;;;;0.63;0.60;;;15.10;67.80;;;;;;4994451;28;20374;-68
2023/12/09 11:09:21;;;;;;;0.50;0.50;;;15.20;67.70;;;;;;5000676;28;20033;-69
2023/12/09 11:11:46;;;;;;;1.05;0.95;;;15.20;67.90;;;;;;4996710;28;20409;-69
2023/12/09 11:14:12;;;;;;;0.50;0.50;;;15.30;68.10;;;;;;4997043;28;20022;-69
2023/12/09 11:16:44;;;;;;;0.50;0.50;;;15.40;68.00;;;;;;4999297;28;20030;-68
2023/12/09 11:19:15;;;;;;;1.75;1.45;;;15.50;68.00;;;;;;5002418;28;20053;-68
2023/12/09 11:21:46;;;;;;;0.35;0.35;;;15.50;67.10;;;;;;4986547;28;20030;-69
2023/12/09 11:24:13;;;;;;;0.45;0.45;;;15.50;67.10;;;;;;5005474;28;20034;-68
2023/12/09 11:26:41;;;;;;;0.60;0.60;;;15.40;66.10;;;;;;4996624;28;20373;-68
2023/12/09 11:29:08;;;;;;;0.40;0.40;;;15.20;66.60;;;;;;5001261;28;20025;-68
2023/12/09 11:31:37;;;;;;;0.57;0.57;;;15.00;66.30;;;;;;4994224;28;20486;-69
2023/12/09 11:34:05;;;;;;;0.68;0.68;;;14.80;65.90;;;;;;5003137;28;20033;-69
2023/12/09 11:36:35;;;;;;;0.50;0.50;;;14.70;66.10;;;;;;4994303;28;20030;-68
2023/12/09 11:39:02;;;;;;;0.80;0.80;;;14.50;67.10;;;;;;5002582;28;20066;-70
2023/12/09 11:41:28;;;;;;;0.40;0.40;;;14.40;66.70;;;;;;4999151;28;20109;-67
2023/12/09 11:43:54;;;;;;;0.40;0.40;;;14.20;67.10;;;;;;5002222;28;20022;-67
2023/12/09 11:46:19;;;;;;;0.40;0.40;;;14.00;67.40;;;;;;4995771;28;20540;-67
2023/12/09 11:48:45;;;;;;;0.50;0.50;;;14.00;67.20;;;;;;4993678;28;20050;-70
2023/12/09 11:51:11;;;;;;;0.82;0.80;;;13.80;67.40;;;;;;5004964;28;20037;-70
2023/12/09 11:53:37;;;;;;;0.60;0.60;;;13.70;67.60;;;;;;5000698;28;20034;-70
2023/12/09 11:56:04;;;;;;;0.60;0.60;;;13.60;68.10;;;;;;4995138;28;20050;-70
2023/12/09 11:58:29;;;;;;;0.82;0.82;;;13.60;68.60;;;;;;5007531;28;20389;-70
2023/12/09 12:00:55;;;;;;;0.40;0.40;;;13.60;69.00;;;;;;4990052;28;20023;-70
2023/12/09 12:03:21;;;;;;;0.45;0.45;;;13.50;69.10;;;;;;4995327;28;20026;-69
2023/12/09 12:05:47;;;;;;;1.65;1.23;;;13.60;69.00;;;;;;4993468;28;20030;-69
2023/12/09 12:08:15;;;;;;;0.30;0.30;;;13.50;68.90;;;;;;4998548;28;20038;-70
2023/12/09 12:10:41;;;;;;;0.40;0.40;;;13.50;69.50;;;;;;5000893;28;20109;-70
2023/12/09 12:13:07;;;;;;;0.40;0.40;;;13.60;69.50;;;;;;4995808;28;20045;-70
2023/12/09 12:15:33;;;;;;;0.50;0.50;;;13.60;69.60;;;;;;4999417;28;20134;-70
2023/12/09 12:18:00;;;;;;;0.45;0.45;;;13.60;69.40;;;;;;4991205;28;20121;-70
2023/12/09 12:20:26;;;;;;;0.40;0.40;;;13.60;69.80;;;;;;4999386;28;20482;-71
2023/12/09 12:22:51;;;;;;;0.50;0.50;;;13.60;69.70;;;;;;4993157;28;20054;-71
2023/12/09 12:25:17;;;;;;;0.50;0.50;;;13.60;69.10;;;;;;4999706;28;20036;-70
2023/12/09 12:27:44;;;;;;;0.50;0.50;;;13.60;69.40;;;;;;5005692;28;20129;-70
2023/12/09 12:30:10;;;;;;;1.88;1.70;;;13.60;69.50;;;;;;5000102;28;20027;-69
2023/12/09 12:32:37;;;;;;;0.43;0.43;;;13.60;69.60;;;;;;4995334;28;20489;-70
2023/12/09 12:35:07;;;;;;;0.60;0.60;;;13.60;69.80;;;;;;5004544;28;20378;-70
2023/12/09 12:37:32;;;;;;;0.40;0.40;;;13.60;69.30;;;;;;5006369;28;20121;-70
2023/12/09 12:39:58;;;;;;;0.50;0.50;;;13.60;69.70;;;;;;5012424;28;20109;-70
2023/12/09 12:42:23;;;;;;;0.52;0.52;;;13.60;69.70;;;;;;4996019;28;20039;-70